Time;durP1;ratioP1;P1;durP2;ratioP2;P2;SDS_P1;SDS_P2;PMS_P1;PMS_P2;Temp;Humidity;BMP_temperature;BMP_pressure;BME280_temperature;BME280_humidity;BME280_pressure;Samples;Min_cycle;Max_cycle;Signal;HPM_P1;HPM_P2
2024/04/17 00:01:17;;;;;;;0.10;0.10;;;;;;;;;;5362940;26;20004;-91
2024/04/17 00:03:43;;;;;;;0.10;0.10;;;;;;;;;;5366064;26;20026;-90
2024/04/17 00:06:09;;;;;;;0.10;0.10;;;;;;;;;;5368253;26;20007;-90
2024/04/17 00:08:35;;;;;;;0.05;0.05;;;;;;;;;;5377897;26;20011;-93
2024/04/17 00:11:01;;;;;;;0.10;0.10;;;;;;;;;;5396110;26;20023;-94
2024/04/17 00:13:27;;;;;;;0.10;0.10;;;;;;;;;;5400439;26;20293;-93
2024/04/17 00:15:53;;;;;;;0.00;0.00;;;;;;;;;;5372261;26;20387;-89
2024/04/17 00:18:19;;;;;;;0.10;0.10;;;;;;;;;;5397372;26;20000;-89
2024/04/17 00:20:45;;;;;;;0.10;0.10;;;;;;;;;;5372582;26;20310;-88
2024/04/17 00:23:11;;;;;;;0.10;0.10;;;;;;;;;;5373236;26;20012;-89
2024/04/17 00:25:36;;;;;;;0.10;0.10;;;;;;;;;;5367274;26;20076;-89
2024/04/17 00:28:02;;;;;;;0.10;0.10;;;;;;;;;;5366647;26;20543;-91
2024/04/17 00:30:28;;;;;;;0.10;0.10;;;;;;;;;;5363979;26;20035;-90
2024/04/17 00:32:54;;;;;;;0.10;0.10;;;;;;;;;;5364507;26;20124;-90
2024/04/17 00:35:20;;;;;;;0.10;0.10;;;;;;;;;;5369060;26;20110;-89
2024/04/17 00:37:46;;;;;;;0.00;0.00;;;;;;;;;;5368936;26;20010;-90
2024/04/17 00:40:11;;;;;;;0.10;0.10;;;6.80;99.90;;;;;;5368344;26;20000;-90
2024/04/17 00:42:37;;;;;;;0.10;0.10;;;;;;;;;;5399690;26;20003;-88
2024/04/17 00:45:03;;;;;;;0.10;0.10;;;;;;;;;;5397446;26;20465;-90
2024/04/17 00:47:30;;;;;;;0.10;0.10;;;;;;;;;;5404804;26;20072;-91
2024/04/17 00:49:56;;;;;;;0.10;0.10;;;;;;;;;;5396659;26;20018;-91
2024/04/17 00:52:22;;;;;;;0.10;0.10;;;;;;;;;;5378923;26;20069;-90
2024/04/17 00:54:48;;;;;;;0.05;0.05;;;;;;;;;;5398569;26;20522;-89
2024/04/17 00:57:14;;;;;;;0.10;0.10;;;6.70;99.90;;;;;;5399140;26;20015;-88
2024/04/17 00:59:42;;;;;;;0.00;0.00;;;6.90;99.90;;;;;;5395435;26;20007;-89
2024/04/17 01:02:08;;;;;;;0.10;0.10;;;;;;;;;;5368820;26;20102;-91
2024/04/17 01:04:34;;;;;;;0.08;0.08;;;;;;;;;;5365669;26;20015;-91
2024/04/17 01:07:00;;;;;;;0.08;0.08;;;;;;;;;;5400812;26;20478;-90
2024/04/17 01:09:26;;;;;;;0.10;0.10;;;;;;;;;;5360842;26;20023;-89
2024/04/17 01:11:52;;;;;;;0.00;0.00;;;;;;;;;;5364727;26;19999;-89
2024/04/17 01:14:18;;;;;;;0.10;0.10;;;;;;;;;;5371243;26;20081;-88
2024/04/17 01:16:44;;;;;;;0.10;0.10;;;;;;;;;;5362123;26;20003;-89
2024/04/17 01:19:10;;;;;;;0.10;0.10;;;;;;;;;;5368789;26;19995;-89
2024/04/17 01:21:37;;;;;;;0.10;0.10;;;;;;;;;;5366322;26;20026;-90
2024/04/17 01:24:03;;;;;;;0.00;0.00;;;;;;;;;;5372257;26;20028;-89
2024/04/17 01:26:29;;;;;;;0.00;0.00;;;;;;;;;;5367260;26;20014;-89
2024/04/17 01:28:54;;;;;;;0.10;0.10;;;;;;;;;;5367788;26;20026;-89
2024/04/17 01:31:20;;;;;;;0.10;0.10;;;;;;;;;;5374911;26;20000;-89
2024/04/17 01:33:46;;;;;;;0.00;0.00;;;;;;;;;;5398494;26;20007;-91
2024/04/17 01:36:13;;;;;;;0.10;0.10;;;;;;;;;;5368090;26;19999;-91
2024/04/17 01:38:39;;;;;;;0.05;0.05;;;;;;;;;;5366673;26;20010;-91
2024/04/17 01:41:05;;;;;;;0.05;0.05;;;;;;;;;;5406739;26;20035;-90
2024/04/17 01:43:31;;;;;;;0.03;0.03;;;;;;;;;;5364958;26;19999;-89
2024/04/17 01:45:58;;;;;;;0.10;0.10;;;;;;;;;;5365211;26;20470;-88
2024/04/17 01:48:24;;;;;;;0.10;0.10;;;;;;;;;;5368469;26;20007;-90
2024/04/17 01:50:53;;;;;;;0.10;0.10;;;;;;;;;;5361947;26;19999;-90
2024/04/17 01:53:19;;;;;;;0.10;0.10;;;;;;;;;;5405855;26;21401;-89
2024/04/17 01:55:45;;;;;;;0.10;0.10;;;;;;;;;;5369909;26;20000;-90
2024/04/17 01:58:12;;;;;;;0.10;0.10;;;;;;;;;;5370499;26;20081;-89
2024/04/17 02:00:38;;;;;;;0.10;0.10;;;;;;;;;;5398623;26;20019;-90
2024/04/17 02:03:04;;;;;;;0.10;0.10;;;;;;;;;;5365010;26;20511;-89
2024/04/17 02:05:30;;;;;;;0.10;0.10;;;;;;;;;;5366180;26;20008;-89
2024/04/17 02:07:56;;;;;;;0.00;0.00;;;;;;;;;;5366548;26;20465;-89
2024/04/17 02:10:22;;;;;;;0.10;0.10;;;;;;;;;;5368155;26;20008;-90
2024/04/17 02:12:48;;;;;;;0.10;0.10;;;;;;;;;;5369694;26;20011;-90
2024/04/17 02:15:14;;;;;;;0.10;0.10;;;;;;;;;;5359379;26;20011;-89
2024/04/17 02:17:39;;;;;;;0.08;0.08;;;;;;;;;;5361741;26;20006;-90
2024/04/17 02:20:07;;;;;;;0.00;0.00;;;;;;;;;;5378105;26;20008;-88
2024/04/17 02:22:32;;;;;;;0.10;0.10;;;;;;;;;;5400546;26;20076;-90
2024/04/17 02:24:58;;;;;;;0.00;0.00;;;6.50;99.90;;;;;;5402481;26;20012;-89
2024/04/17 02:27:24;;;;;;;0.08;0.08;;;;;;;;;;5403023;26;20067;-91
2024/04/17 02:29:53;;;;;;;0.10;0.10;;;;;;;;;;5368134;26;20022;-91
2024/04/17 02:32:19;;;;;;;0.10;0.10;;;;;;;;;;5361633;26;20003;-91
2024/04/17 02:34:44;;;;;;;0.10;0.10;;;6.30;99.90;;;;;;5372638;26;20014;-90
2024/04/17 02:37:10;;;;;;;0.03;0.03;;;6.20;99.90;;;;;;5382169;26;20026;-89
2024/04/17 02:39:36;;;;;;;0.00;0.00;;;6.20;99.90;;;;;;5367923;26;20049;-90
2024/04/17 02:42:02;;;;;;;0.00;0.00;;;;;;;;;;5369730;26;20045;-90
2024/04/17 02:44:28;;;;;;;0.10;0.10;;;;;;;;;;5376502;26;20345;-89
2024/04/17 02:46:54;;;;;;;0.10;0.10;;;6.30;99.90;;;;;;5377409;26;19996;-89
2024/04/17 02:49:20;;;;;;;0.10;0.10;;;;;;;;;;5367015;26;20000;-90
2024/04/17 02:51:46;;;;;;;0.10;0.10;;;;;;;;;;5396507;26;20050;-90
2024/04/17 02:54:12;;;;;;;0.08;0.08;;;;;;;;;;5363400;26;20071;-89
2024/04/17 02:56:39;;;;;;;0.10;0.10;;;6.20;99.90;;;;;;5380646;26;20019;-90
2024/04/17 02:59:04;;;;;;;0.10;0.10;;;;;;;;;;5397823;26;20071;-91
2024/04/17 03:01:31;;;;;;;0.00;0.00;;;;;;;;;;5393412;26;20396;-89
2024/04/17 03:03:57;;;;;;;0.03;0.03;;;;;;;;;;5363746;26;19999;-89
2024/04/17 03:06:23;;;;;;;0.00;0.00;;;;;;;;;;5363459;26;20343;-89
2024/04/17 03:08:49;;;;;;;0.10;0.10;;;6.20;99.90;;;;;;5360475;26;20447;-90
2024/04/17 03:11:15;;;;;;;0.10;0.10;;;;;;;;;;5368501;26;20011;-89
2024/04/17 03:13:40;;;;;;;0.10;0.10;;;6.20;99.90;;;;;;5363970;26;19999;-89
2024/04/17 03:16:06;;;;;;;0.10;0.10;;;;;;;;;;5397149;26;19999;-90
2024/04/17 03:18:32;;;;;;;0.00;0.00;;;;;;;;;;5408715;26;20015;-95
2024/04/17 03:21:02;;;;;;;0.00;0.00;;;6.00;99.90;;;;;;5407358;26;20113;-93
2024/04/17 03:23:27;;;;;;;0.10;0.10;;;;;;;;;;5409998;26;19996;-90
2024/04/17 03:26:00;;;;;;;0.10;0.10;;;6.10;99.90;;;;;;5415945;26;19995;-89
2024/04/17 03:28:26;;;;;;;0.10;0.10;;;;;;;;;;5419309;26;20035;-89
2024/04/17 03:30:52;;;;;;;0.10;0.10;;;;;;;;;;5393964;26;19999;-89
2024/04/17 03:33:18;;;;;;;0.10;0.10;;;;;;;;;;5376296;26;20384;-89
2024/04/17 03:35:58;;;;;;;0.10;0.10;;;6.00;99.90;;;;;;5394798;26;20392;-89
2024/04/17 03:38:24;;;;;;;0.10;0.10;;;5.90;99.90;;;;;;5376927;26;20025;-89
2024/04/17 03:40:50;;;;;;;0.10;0.10;;;;;;;;;;5423732;26;20562;-89
2024/04/17 03:43:16;;;;;;;0.08;0.08;;;;;;;;;;5413605;26;19995;-89
2024/04/17 03:45:42;;;;;;;0.10;0.10;;;5.90;99.90;;;;;;5412680;26;20001;-89
2024/04/17 03:48:08;;;;;;;0.10;0.10;;;;;;;;;;5378127;26;20000;-91
2024/04/17 03:50:34;;;;;;;0.08;0.08;;;;;;;;;;5405440;26;20530;-89
2024/04/17 03:53:00;;;;;;;0.10;0.10;;;;;;;;;;5420925;26;19995;-89
2024/04/17 03:55:26;;;;;;;0.10;0.10;;;;;;;;;;5378779;26;20408;-89
2024/04/17 03:57:51;;;;;;;0.00;0.00;;;;;;;;;;5410165;26;20000;-89
2024/04/17 04:00:17;;;;;;;0.10;0.10;;;;;;;;;;5375762;26;20003;-89
2024/04/17 04:02:43;;;;;;;0.10;0.10;;;;;;;;;;5415646;26;19999;-89
2024/04/17 04:05:10;;;;;;;0.10;0.10;;;;;;;;;;5413452;26;20096;-89
2024/04/17 04:07:37;;;;;;;0.10;0.10;;;;;;;;;;5388407;26;19995;-89
2024/04/17 04:10:03;;;;;;;0.10;0.10;;;;;;;;;;5411657;26;20490;-91
2024/04/17 04:12:29;;;;;;;0.00;0.00;;;;;;;;;;5406882;26;20000;-89
2024/04/17 04:14:55;;;;;;;0.00;0.00;;;;;;;;;;5409603;26;20018;-88
2024/04/17 04:17:21;;;;;;;0.10;0.10;;;;;;;;;;5371703;26;20050;-89
2024/04/17 04:19:47;;;;;;;0.10;0.10;;;;;;;;;;5428104;26;20009;-89
2024/04/17 04:22:13;;;;;;;0.10;0.10;;;;;;;;;;5371961;26;19995;-90
2024/04/17 04:24:40;;;;;;;0.03;0.03;;;;;;;;;;5370415;26;20073;-89
2024/04/17 04:27:09;;;;;;;0.00;0.00;;;;;;;;;;5402506;26;19999;-90
2024/04/17 04:29:35;;;;;;;0.10;0.10;;;;;;;;;;5364970;26;20016;-89
2024/04/17 04:32:01;;;;;;;0.10;0.10;;;;;;;;;;5378025;26;20055;-90
2024/04/17 04:34:27;;;;;;;0.10;0.10;;;;;;;;;;5368953;26;20678;-91
2024/04/17 04:36:53;;;;;;;0.08;0.08;;;;;;;;;;5386949;26;20007;-89
2024/04/17 04:39:19;;;;;;;0.05;0.05;;;;;;;;;;5396184;26;19996;-90
2024/04/17 04:41:45;;;;;;;0.10;0.10;;;;;;;;;;5391296;26;20023;-89
2024/04/17 04:44:11;;;;;;;0.10;0.10;;;;;;;;;;5371542;26;20020;-89
2024/04/17 04:46:37;;;;;;;0.00;0.00;;;;;;;;;;5371507;26;20006;-88
2024/04/17 04:49:03;;;;;;;0.05;0.05;;;;;;;;;;5369107;26;20378;-88
2024/04/17 04:51:29;;;;;;;0.00;0.00;;;;;;;;;;5369826;26;20035;-89
2024/04/17 04:53:54;;;;;;;0.10;0.10;;;;;;;;;;5378494;26;19995;-92
2024/04/17 04:56:20;;;;;;;0.00;0.00;;;;;;;;;;5394021;26;20014;-89
2024/04/17 04:58:46;;;;;;;0.10;0.10;;;;;;;;;;5382081;26;19996;-88
2024/04/17 05:01:12;;;;;;;0.10;0.10;;;;;;;;;;5382199;26;20050;-88
2024/04/17 05:03:38;;;;;;;0.10;0.10;;;;;;;;;;5378624;26;19991;-88
2024/04/17 05:06:04;;;;;;;0.00;0.00;;;;;;;;;;5400179;26;20003;-89
2024/04/17 05:08:30;;;;;;;0.10;0.10;;;;;;;;;;5388932;26;19995;-88
2024/04/17 05:10:56;;;;;;;0.10;0.10;;;;;;;;;;5402476;26;20033;-89
2024/04/17 05:13:22;;;;;;;0.00;0.00;;;;;;;;;;5401975;26;21730;-89
2024/04/17 05:15:48;;;;;;;0.10;0.10;;;;;;;;;;5393272;26;20030;-86
2024/04/17 05:18:14;;;;;;;0.10;0.10;;;;;;;;;;5381409;26;20004;-89
2024/04/17 05:20:40;;;;;;;0.10;0.10;;;;;;;;;;5373060;26;19999;-89
2024/04/17 05:23:06;;;;;;;0.10;0.10;;;;;;;;;;5384738;26;19995;-89
2024/04/17 05:25:32;;;;;;;0.10;0.10;;;;;;;;;;5416296;26;20019;-90
2024/04/17 05:27:58;;;;;;;0.10;0.10;;;;;;;;;;5409326;26;19991;-90
2024/04/17 05:30:24;;;;;;;0.10;0.10;;;;;;;;;;5380725;26;20015;-89
2024/04/17 05:32:50;;;;;;;0.10;0.10;;;;;;;;;;5374998;26;20053;-88
2024/04/17 05:35:16;;;;;;;0.00;0.00;;;;;;;;;;5385662;26;20322;-89
2024/04/17 05:37:42;;;;;;;0.10;0.10;;;;;;;;;;5430231;26;20029;-89
2024/04/17 05:40:08;;;;;;;0.10;0.10;;;;;;;;;;5400019;26;20354;-91
2024/04/17 05:42:34;;;;;;;0.08;0.08;;;;;;;;;;5381201;26;20015;-88
2024/04/17 05:44:59;;;;;;;0.10;0.10;;;;;;;;;;5397389;26;20000;-88
2024/04/17 05:47:25;;;;;;;0.00;0.00;;;;;;;;;;5410993;26;20003;-88
2024/04/17 05:49:52;;;;;;;0.10;0.10;;;;;;;;;;5400749;26;20006;-89
2024/04/17 05:52:20;;;;;;;0.10;0.10;;;;;;;;;;5386374;26;20080;-89
2024/04/17 05:54:46;;;;;;;0.03;0.03;;;;;;;;;;5389196;26;20011;-88
2024/04/17 05:57:12;;;;;;;0.10;0.10;;;;;;;;;;5400626;26;20033;-89
2024/04/17 05:59:37;;;;;;;0.10;0.10;;;;;;;;;;5413765;26;20003;-89
2024/04/17 06:02:04;;;;;;;0.10;0.10;;;;;;;;;;5392952;26;20018;-90
2024/04/17 06:04:29;;;;;;;0.10;0.10;;;;;;;;;;5393794;26;20052;-90
2024/04/17 06:06:56;;;;;;;0.10;0.10;;;;;;;;;;5398721;26;19998;-88
2024/04/17 06:09:22;;;;;;;0.10;0.10;;;;;;;;;;5401342;26;20085;-90
2024/04/17 06:11:48;;;;;;;0.10;0.10;;;;;;;;;;5391946;26;20451;-87
2024/04/17 06:14:14;;;;;;;0.10;0.10;;;;;;;;;;5415527;26;19995;-87
2024/04/17 06:16:39;;;;;;;0.03;0.03;;;;;;;;;;5400232;26;20457;-88
2024/04/17 06:19:05;;;;;;;0.10;0.10;;;;;;;;;;5400778;26;20449;-89
2024/04/17 06:21:32;;;;;;;0.10;0.10;;;;;;;;;;5376647;26;19999;-89
2024/04/17 06:23:58;;;;;;;0.10;0.10;;;;;;;;;;5416025;26;20381;-89
2024/04/17 06:26:24;;;;;;;0.10;0.10;;;;;;;;;;5404966;26;19995;-88
2024/04/17 06:28:50;;;;;;;0.00;0.00;;;;;;;;;;5392693;26;19999;-88
2024/04/17 06:31:16;;;;;;;0.05;0.05;;;;;;;;;;5409295;26;19987;-94
2024/04/17 06:33:41;;;;;;;0.10;0.10;;;;;;;;;;5428983;26;20032;-93
2024/04/17 06:36:08;;;;;;;0.10;0.10;;;;;;;;;;5404786;26;19992;-89
2024/04/17 06:38:34;;;;;;;0.10;0.10;;;;;;;;;;5376818;26;20004;-90
2024/04/17 06:41:00;;;;;;;0.10;0.10;;;;;;;;;;5442445;26;20473;-89
2024/04/17 06:43:26;;;;;;;0.00;0.00;;;;;;;;;;5409193;26;20018;-89
2024/04/17 06:45:52;;;;;;;0.10;0.10;;;;;;;;;;5419349;26;19991;-89
2024/04/17 06:48:18;;;;;;;0.10;0.10;;;;;;;;;;5408689;26;20012;-89
2024/04/17 06:50:44;;;;;;;0.10;0.10;;;;;;;;;;5395720;26;20362;-89
2024/04/17 06:53:13;;;;;;;0.03;0.03;;;;;;;;;;5436927;26;19995;-91
2024/04/17 06:55:39;;;;;;;0.00;0.00;;;;;;;;;;5412794;26;20054;-89
2024/04/17 06:58:04;;;;;;;0.00;0.00;;;;;;;;;;5427141;26;20011;-91
2024/04/17 07:00:32;;;;;;;0.10;0.10;;;7.30;99.90;;;;;;5379560;26;20000;-88
2024/04/17 07:02:58;;;;;;;0.10;0.10;;;;;;;;;;5383550;26;20454;-88
2024/04/17 07:05:24;;;;;;;0.00;0.00;;;;;;;;;;5411554;26;19999;-90
2024/04/17 07:07:50;;;;;;;0.00;0.00;;;;;;;;;;5384589;26;20015;-90
2024/04/17 07:10:16;;;;;;;0.10;0.10;;;;;;;;;;5377413;26;19999;-89
2024/04/17 07:12:42;;;;;;;0.10;0.10;;;;;;;;;;5407598;26;19999;-89
2024/04/17 07:15:09;;;;;;;0.00;0.00;;;;;;;;;;5386795;26;19992;-87
2024/04/17 07:17:35;;;;;;;0.10;0.10;;;;;;;;;;5395295;26;19999;-89
2024/04/17 07:20:01;;;;;;;0.00;0.00;;;;;;;;;;5382224;26;20005;-91
2024/04/17 07:22:26;;;;;;;0.10;0.10;;;7.80;99.90;;;;;;5414510;26;19995;-88
2024/04/17 07:24:52;;;;;;;0.10;0.10;;;;;;;;;;5426807;26;20465;-91
2024/04/17 07:27:18;;;;;;;0.00;0.00;;;;;;;;;;5416603;26;20004;-89
2024/04/17 07:29:45;;;;;;;0.10;0.10;;;;;;;;;;5388004;26;20041;-89
2024/04/17 07:32:11;;;;;;;0.03;0.03;;;;;;;;;;5394510;26;20079;-89
2024/04/17 07:34:37;;;;;;;0.10;0.10;;;;;;;;;;5405215;26;21605;-89
2024/04/17 07:37:04;;;;;;;0.08;0.08;;;;;;;;;;5382761;26;20017;-89
2024/04/17 07:39:30;;;;;;;0.10;0.10;;;;;;;;;;5380696;26;20015;-90
2024/04/17 07:41:56;;;;;;;0.10;0.10;;;;;;;;;;5365009;26;19999;-89
2024/04/17 07:44:22;;;;;;;0.08;0.08;;;;;;;;;;5376544;26;19996;-89
2024/04/17 07:46:48;;;;;;;0.10;0.10;;;;;;;;;;5366099;26;20000;-88
2024/04/17 07:49:15;;;;;;;0.05;0.05;;;;;;;;;;5402258;26;20028;-90
2024/04/17 07:51:41;;;;;;;0.00;0.00;;;;;;;;;;5398242;26;20036;-90
2024/04/17 07:54:06;;;;;;;0.10;0.10;;;;;;;;;;5392101;26;20469;-89
2024/04/17 07:56:32;;;;;;;0.00;0.00;;;;;;;;;;5395020;26;20000;-90
2024/04/17 07:58:58;;;;;;;0.00;0.00;;;;;;;;;;5374292;26;20076;-91
2024/04/17 08:01:24;;;;;;;0.08;0.08;;;;;;;;;;5376761;26;20012;-89
2024/04/17 08:03:50;;;;;;;0.10;0.10;;;;;;;;;;5382244;26;20015;-89
2024/04/17 08:06:20;;;;;;;0.08;0.08;;;;;;;;;;5353370;26;20135;-88
2024/04/17 08:08:47;;;;;;;0.10;0.10;;;;;;;;;;5399444;26;20035;-89
2024/04/17 08:11:13;;;;;;;0.00;0.00;;;;;;;;;;5407709;26;20000;-90
2024/04/17 08:13:39;;;;;;;0.10;0.10;;;;;;;;;;5381084;26;19996;-89
2024/04/17 08:16:05;;;;;;;0.10;0.10;;;;;;;;;;5373074;26;20067;-89
2024/04/17 08:18:31;;;;;;;0.10;0.10;;;;;;;;;;5386123;26;20019;-91
2024/04/17 08:20:58;;;;;;;0.00;0.00;;;;;;;;;;5383632;26;20028;-89
2024/04/17 08:23:24;;;;;;;0.10;0.10;;;9.80;98.40;;;;;;5375864;26;20028;-89
2024/04/17 08:25:50;;;;;;;0.00;0.00;;;;;;;;;;5381707;26;20007;-88
2024/04/17 08:28:17;;;;;;;0.10;0.10;;;10.20;98.80;;;;;;5379801;26;20046;-89
2024/04/17 08:30:43;;;;;;;0.08;0.08;;;;;;;;;;5374970;26;20108;-89
2024/04/17 08:33:09;;;;;;;0.00;0.00;;;;;;;;;;5383855;26;20012;-89
2024/04/17 08:35:39;;;;;;;0.10;0.10;;;10.00;97.60;;;;;;5382941;26;19992;-89
2024/04/17 08:38:05;;;;;;;0.10;0.10;;;;;;;;;;5372860;26;20008;-89
2024/04/17 08:40:31;;;;;;;0.00;0.00;;;;;;;;;;5413630;26;20450;-91
2024/04/17 08:43:02;;;;;;;0.10;0.10;;;9.80;97.70;;;;;;5370764;26;20003;-90
2024/04/17 08:45:35;;;;;;;0.00;0.00;;;9.80;97.70;;;;;;5415053;26;20022;-90
2024/04/17 08:48:01;;;;;;;0.00;0.00;;;;;;;;;;5402267;26;19995;-90
2024/04/17 08:50:31;;;;;;;0.10;0.10;;;10.20;94.80;;;;;;5383369;26;20000;-92
2024/04/17 08:53:01;;;;;;;0.10;0.10;;;9.80;99.60;;;;;;5385967;26;20458;-91
2024/04/17 08:55:30;;;;;;;0.00;0.00;;;9.80;96.60;;;;;;5387534;26;19999;-88
2024/04/17 08:57:57;;;;;;;0.10;0.10;;;;;;;;;;5384896;26;20014;-90
2024/04/17 09:00:26;;;;;;;0.00;0.00;;;10.20;96.60;;;;;;5385376;26;20003;-89
2024/04/17 09:02:56;;;;;;;0.10;0.10;;;10.40;96.60;;;;;;5415025;26;20420;-90
2024/04/17 09:05:24;;;;;;;0.00;0.00;;;10.90;95.50;;;;;;5377920;26;20010;-90
2024/04/17 09:07:50;;;;;;;0.10;0.10;;;;;;;;;;5412229;26;20003;-90
2024/04/17 09:10:17;;;;;;;0.00;0.00;;;10.70;95.40;;;;;;5388450;26;20002;-88
2024/04/17 09:12:44;;;;;;;0.00;0.00;;;10.80;96.10;;;;;;5362899;26;20034;-89
2024/04/17 09:15:12;;;;;;;0.00;0.00;;;11.00;96.20;;;;;;5376918;26;20011;-89
2024/04/17 09:17:38;;;;;;;0.00;0.00;;;;;;;;;;5384782;26;20038;-89
2024/04/17 09:20:05;;;;;;;0.00;0.00;;;11.30;96.60;;;;;;5388030;26;20472;-89
2024/04/17 09:22:31;;;;;;;0.00;0.00;;;;;;;;;;5382938;26;20340;-89
2024/04/17 09:24:57;;;;;;;0.00;0.00;;;;;;;;;;5386946;26;20068;-89
2024/04/17 09:27:23;;;;;;;0.00;0.00;;;;;;;;;;5375391;26;20015;-89
2024/04/17 09:29:48;;;;;;;0.00;0.00;;;;;;;;;;5413386;26;20012;-90
2024/04/17 09:32:15;;;;;;;0.00;0.00;;;;;;;;;;5416829;26;20011;-91
2024/04/17 09:34:41;;;;;;;0.10;0.10;;;;;;;;;;5405046;26;19995;-90
2024/04/17 09:37:11;;;;;;;0.00;0.00;;;11.50;92.90;;;;;;5383595;26;20007;-90
2024/04/17 09:39:36;;;;;;;0.00;0.00;;;;;;;;;;5358853;26;20042;-89
2024/04/17 09:42:07;;;;;;;0.00;0.00;;;11.20;96.00;;;;;;5378802;26;20007;-91
2024/04/17 09:44:38;;;;;;;0.03;0.03;;;11.10;95.30;;;;;;5398208;26;20007;-92
2024/04/17 09:47:09;;;;;;;0.00;0.00;;;11.00;96.00;;;;;;5407854;26;19991;-90
2024/04/17 09:49:37;;;;;;;0.00;0.00;;;11.20;96.50;;;;;;5410234;26;20010;-89
2024/04/17 09:52:05;;;;;;;0.00;0.00;;;11.20;97.50;;;;;;5367117;26;20014;-91
2024/04/17 09:54:31;;;;;;;0.00;0.00;;;;;;;;;;5368946;26;20011;-87
2024/04/17 09:56:57;;;;;;;0.00;0.00;;;;;;;;;;5412709;26;20000;-90
2024/04/17 09:59:24;;;;;;;0.00;0.00;;;;;;;;;;5383965;26;20000;-90
2024/04/17 10:01:50;;;;;;;0.00;0.00;;;11.10;96.50;;;;;;5377672;26;20528;-89
2024/04/17 10:04:17;;;;;;;0.00;0.00;;;;;;;;;;5379073;26;19992;-90
2024/04/17 10:06:44;;;;;;;0.00;0.00;;;11.20;96.60;;;;;;5389735;26;20243;-88
2024/04/17 10:09:13;;;;;;;0.00;0.00;;;;;;;;;;5416200;26;20363;-90
2024/04/17 10:11:39;;;;;;;0.00;0.00;;;;;;;;;;5395326;26;20015;-89
2024/04/17 10:14:10;;;;;;;0.00;0.00;;;11.40;96.20;;;;;;5388329;26;19999;-91
2024/04/17 10:16:36;;;;;;;0.00;0.00;;;;;;;;;;5390192;26;20035;-91
2024/04/17 10:19:02;;;;;;;0.00;0.00;;;;;;;;;;5375636;26;20462;-89
2024/04/17 10:21:28;;;;;;;0.00;0.00;;;;;;;;;;5386208;26;20076;-90
2024/04/17 10:24:06;;;;;;;0.00;0.00;;;12.00;95.10;;;;;;5383253;26;20672;-90
2024/04/17 10:26:53;;;;;;;0.00;0.00;;;;;;;;;;5376955;26;20015;-90
2024/04/17 10:29:29;;;;;;;0.00;0.00;;;;;;;;;;5376098;26;20003;-89
2024/04/17 10:31:59;;;;;;;0.00;0.00;;;;;;;;;;5385397;26;19999;-89
2024/04/17 10:34:25;;;;;;;;;;;;;;;;;;5384546;26;19995;-92
2024/04/17 10:36:55;;;;;;;0.00;0.00;;;;;;;;;;5368466;26;19940;-92
2024/04/17 10:39:21;;;;;;;;;;;;;;;;;;5386673;26;20559;-89
2024/04/17 10:41:47;;;;;;;0.00;0.00;;;;;;;;;;5377408;26;19936;-90
2024/04/17 10:44:13;;;;;;;0.00;0.00;;;;;;;;;;5383517;26;20010;-90
2024/04/17 10:46:39;;;;;;;0.00;0.00;;;;;;;;;;5419352;26;19998;-91
2024/04/17 10:49:15;;;;;;;0.00;0.00;;;;;;;;;;5365059;26;20003;-92
2024/04/17 10:51:42;;;;;;;0.00;0.00;;;;;;;;;;5376086;26;20004;-90
2024/04/17 10:54:10;;;;;;;0.00;0.00;;;;;;;;;;5389283;26;19995;-89
2024/04/17 10:56:37;;;;;;;0.00;0.00;;;;;;;;;;5385198;26;20015;-89
2024/04/17 10:59:03;;;;;;;0.00;0.00;;;;;;;;;;5373234;26;20278;-90
2024/04/17 11:01:30;;;;;;;0.00;0.00;;;;;;;;;;5397844;26;19996;-89
2024/04/17 11:03:56;;;;;;;0.00;0.00;;;;;;;;;;5383967;26;20019;-90
2024/04/17 11:06:23;;;;;;;0.00;0.00;;;13.40;92.70;;;;;;5388564;26;19999;-91
2024/04/17 11:08:49;;;;;;;0.00;0.00;;;;;;;;;;5406268;26;20006;-91
2024/04/17 11:11:16;;;;;;;0.00;0.00;;;13.50;92.10;;;;;;5375863;26;20007;-90
2024/04/17 11:13:46;;;;;;;0.00;0.00;;;;;;;;;;5413077;26;20015;-88
2024/04/17 11:16:13;;;;;;;0.00;0.00;;;13.60;92.30;;;;;;5405348;26;20447;-88
2024/04/17 11:18:39;;;;;;;0.00;0.00;;;;;;;;;;5407111;26;19999;-90
2024/04/17 11:21:05;;;;;;;0.00;0.00;;;;;;;;;;5389250;26;20780;-89
2024/04/17 11:23:41;;;;;;;0.00;0.00;;;13.60;91.90;;;;;;5407283;26;19999;-89
2024/04/17 11:26:07;;;;;;;0.00;0.00;;;;;;;;;;5382465;26;19999;-92
2024/04/17 11:28:33;;;;;;;0.00;0.00;;;;;;;;;;5405766;26;20008;-89
2024/04/17 11:30:59;;;;;;;0.00;0.00;;;;;;;;;;5381798;26;20003;-89
2024/04/17 11:33:28;;;;;;;0.00;0.00;;;14.20;93.40;;;;;;5380936;26;20015;-89
2024/04/17 11:36:09;;;;;;;0.00;0.00;;;14.80;90.60;;;;;;5407216;26;20813;-90
2024/04/17 11:38:36;;;;;;;0.00;0.00;;;;;;;;;;5380281;26;20341;-90
2024/04/17 11:41:02;;;;;;;0.00;0.00;;;;;;;;;;5384298;26;20079;-89
2024/04/17 11:43:28;;;;;;;0.00;0.00;;;;;;;;;;5373755;26;19999;-90
2024/04/17 11:45:54;;;;;;;0.00;0.00;;;13.60;92.30;;;;;;5372730;26;20386;-91
2024/04/17 11:48:20;;;;;;;0.00;0.00;;;;;;;;;;5408401;26;19991;-90
2024/04/17 11:50:46;;;;;;;0.00;0.00;;;;;;;;;;5385306;26;20000;-89
2024/04/17 11:53:11;;;;;;;0.00;0.00;;;13.70;91.70;;;;;;5383085;26;20010;-89
2024/04/17 11:55:37;;;;;;;0.00;0.00;;;;;;;;;;5386727;26;20007;-90
2024/04/17 11:58:04;;;;;;;0.00;0.00;;;;;;;;;;5370618;26;20061;-89
2024/04/17 12:00:30;;;;;;;0.00;0.00;;;;;;;;;;5370143;26;20358;-91
2024/04/17 12:02:56;;;;;;;0.00;0.00;;;;;;;;;;5378641;26;20011;-89
2024/04/17 12:05:22;;;;;;;0.00;0.00;;;;;;;;;;5377882;26;20577;-89
2024/04/17 12:07:48;;;;;;;0.00;0.00;;;;;;;;;;5388787;26;19992;-91
2024/04/17 12:10:14;;;;;;;0.00;0.00;;;;;;;;;;5414111;26;20004;-91
2024/04/17 12:12:40;;;;;;;0.00;0.00;;;;;;;;;;5383267;26;20857;-89
2024/04/17 12:15:06;;;;;;;0.00;0.00;;;;;;;;;;5381659;26;22264;-89
2024/04/17 12:17:32;;;;;;;0.00;0.00;;;;;;;;;;5374874;26;20008;-90
2024/04/17 12:19:58;;;;;;;0.00;0.00;;;;;;;;;;5382976;26;20426;-90
2024/04/17 12:22:23;;;;;;;0.00;0.00;;;13.20;92.60;;;;;;5388244;26;19996;-89
2024/04/17 12:27:34;;;;;;;0.00;0.00;;;;;;;;;;5414121;26;20015;-91
2024/04/17 12:30:00;;;;;;;0.00;0.00;;;;;;;;;;5394265;26;20462;-91
2024/04/17 12:33:19;;;;;;;0.00;0.00;;;13.30;91.70;;;;;;5388032;26;20023;-90
2024/04/17 12:35:44;;;;;;;0.00;0.00;;;;;;;;;;5404727;26;20041;-91
2024/04/17 12:38:10;;;;;;;0.00;0.00;;;;;;;;;;5385827;26;20050;-88
2024/04/17 12:40:36;;;;;;;0.00;0.00;;;;;;;;;;5381535;26;20474;-88
2024/04/17 12:43:02;;;;;;;0.00;0.00;;;;;;;;;;5406181;26;20063;-89
2024/04/17 12:45:28;;;;;;;0.00;0.00;;;;;;;;;;5389459;26;20001;-92
2024/04/17 12:55:34;;;;;;;0.00;0.00;;;13.10;95.80;;;;;;5298294;26;20045;-90
2024/04/17 12:58:00;;;;;;;0.00;0.00;;;;;;;;;;5282403;26;20028;-89
2024/04/17 13:00:27;;;;;;;0.00;0.00;;;;;;;;;;5312925;26;20009;-90
2024/04/17 13:02:53;;;;;;;0.00;0.00;;;;;;;;;;5310851;26;20000;-89
2024/04/17 13:05:19;;;;;;;0.00;0.00;;;;;;;;;;5313497;26;20544;-88
2024/04/17 13:07:45;;;;;;;0.00;0.00;;;;;;;;;;5314012;26;20008;-89
2024/04/17 16:16:36;;;;;;;0.00;0.00;;;;;;;;;;5328334;26;20244;-90
2024/04/17 16:19:06;;;;;;;0.00;0.00;;;;;;;;;;5308596;26;20001;-89
2024/04/17 16:21:32;;;;;;;0.00;0.00;;;;;;;;;;5332339;26;20004;-89
2024/04/17 16:23:58;;;;;;;0.00;0.00;;;;;;;;;;5307536;26;20500;-90
2024/04/17 16:26:24;;;;;;;0.10;0.10;;;;;;;;;;5309601;26;20008;-89
2024/04/17 17:45:00;;;;;;;0.10;0.10;;;8.60;99.90;;;;;;5302084;26;20013;-90
2024/04/17 17:47:25;;;;;;;0.00;0.00;;;8.80;99.90;;;;;;5304233;26;20005;-88
2024/04/17 17:49:52;;;;;;;0.10;0.10;;;;;;;;;;5285972;26;20002;-89
2024/04/17 17:52:18;;;;;;;0.00;0.00;;;;;;;;;;5273803;27;20091;-90
2024/04/17 20:02:04;;;;;;;0.10;0.10;;;;;;;;;;5295823;26;20445;-90
2024/04/17 20:04:32;;;;;;;0.10;0.10;;;;;;;;;;5271793;27;20029;-91
2024/04/17 20:06:58;;;;;;;0.10;0.10;;;;;;;;;;5305335;26;20005;-90
2024/04/17 20:09:24;;;;;;;0.10;0.10;;;;;;;;;;5309731;26;19997;-89
2024/04/17 20:11:49;;;;;;;0.00;0.00;;;;;;;;;;5324552;26;20108;-90
2024/04/17 20:14:15;;;;;;;0.10;0.10;;;7.40;99.90;;;;;;5301852;26;19997;-90
2024/04/17 20:16:41;;;;;;;0.10;0.10;;;;;;;;;;5336249;26;20001;-90
2024/04/17 20:19:07;;;;;;;0.00;0.00;;;;;;;;;;5305091;26;20037;-89
2024/04/17 20:21:33;;;;;;;0.10;0.10;;;;;;;;;;5331823;26;20349;-89
2024/04/17 20:23:59;;;;;;;0.10;0.10;;;;;;;;;;5339637;26;20397;-90
2024/04/17 20:26:24;;;;;;;0.10;0.10;;;;;;;;;;5300945;26;20005;-90
2024/04/17 20:28:50;;;;;;;0.10;0.10;;;;;;;;;;5311830;26;20005;-90
2024/04/17 20:31:16;;;;;;;0.10;0.10;;;;;;;;;;5311097;26;20020;-90
2024/04/17 20:33:46;;;;;;;0.10;0.10;;;;;;;;;;5309428;26;20006;-90
2024/04/17 20:36:16;;;;;;;0.00;0.00;;;7.40;99.90;;;;;;5302972;26;20008;-91
2024/04/17 20:38:42;;;;;;;0.10;0.10;;;;;;;;;;5300737;26;20033;-90
2024/04/17 20:41:10;;;;;;;0.05;0.05;;;;;;;;;;5315986;26;20005;-90
2024/04/17 20:43:36;;;;;;;0.10;0.10;;;;;;;;;;5306803;26;20019;-90
2024/04/17 20:46:12;;;;;;;0.05;0.05;;;;;;;;;;5313513;26;20447;-90
2024/04/17 20:48:39;;;;;;;0.10;0.10;;;;;;;;;;5308233;26;20103;-90
2024/04/17 20:51:05;;;;;;;0.10;0.10;;;;;;;;;;5302551;26;20019;-91
2024/04/17 20:53:31;;;;;;;0.10;0.10;;;;;;;;;;5309314;26;20005;-91
2024/04/17 20:55:57;;;;;;;0.00;0.00;;;;;;;;;;5339722;26;20005;-90
2024/04/17 20:58:24;;;;;;;0.10;0.10;;;;;;;;;;5312355;26;20001;-89
2024/04/17 21:01:08;;;;;;;0.10;0.10;;;7.40;99.90;;;;;;5334801;26;20076;-92